Portada
METAR-TAF:

METAR-TAF

Aeroports :

Islamabad, Pakistan

latitud: 33-37N, longitud: 073-06E, altitud: 507 m

Observació

L'informe es va fer fa 41 minuts, a les 23:00 UTC
Vent calma
Temperatura 15°C
Humitat 63%
Pressió 1017 hPa
Visibilitat: 7000 m

METAR: OPRN 192300Z 00000KT 7000 NSC 15/08 Q1017 NOSIG RMK A3003

Hora: 04:41 (23:41 UTC)

Pronòstic

L'informe es va fer fa 2 hores i 11 minuts, a les 21:30 UTC
Pronòstic vàlid del 20 a les 00 UTC al 21 a les 06 UTC
Vent 10 kt del Sud/Sud-Oest
Visibilitat 10 km o més
Escasses núvols a una alçada de 4000 ft
Escasses núvols a una alçada de 10000 ft
Temporalment
l' 20 a les 09 UTC al 20 a les 12 UTC
Vent 10 kt del Nord/Nord-Oest amb ràfegues de 20 kt
Visibilitat: 5000 m
Núvols disperses a una alçada de 4000 ft
calitja
Evolucionant progressivament
l' 21 a les 01 UTC al 21 a les 03 UTC
Visibilitat: 4000 m
calitja

TAF: OPRN 192130Z 2000/2106 21010KT 9999 FEW040 FEW100 TEMPO 2009/2012 33010G20KT 5000 HZ SCT040 BECMG 2101/2103 4000 HZ NSC

Observacions i pronòstics meteorològics de més de 4000 aeroports (METAR i TAF).

Les estacions disponibles són els punts grocs i vermells al mapa.

Posi el ratolí al punt desitjat per veure el nom de l'estació.

Feu clic per veure les observacions i els pronòstics meteorològics.

Per canviar el mapa: feu clic els botons verds amb una creu de color negre per apropar; al botó verd amb un guió per allunyar la imatge; o en les fletxes verdes per a mapes adjacents.


METAR-TAF: